sensor_id;sensor_type;location;lat;lon;timestamp;pressure;altitude;pressure_sealevel;temperature;humidity
58821;BME280;70670;52.476;13.334;2024-02-26T00:00:26;99819.22;;;4.18;80.24
58821;BME280;70670;52.476;13.334;2024-02-26T00:03:11;99808.75;;;4.15;80.47
58821;BME280;70670;52.476;13.334;2024-02-26T00:05:37;99802.63;;;4.15;80.56
58821;BME280;70670;52.476;13.334;2024-02-26T00:08:04;99802.69;;;4.13;80.76
58821;BME280;70670;52.476;13.334;2024-02-26T00:10:29;99808.97;;;4.11;80.87
58821;BME280;70670;52.476;13.334;2024-02-26T00:12:55;99801.97;;;4.10;81.25
58821;BME280;70670;52.476;13.334;2024-02-26T00:15:20;99806.72;;;4.02;81.39
58821;BME280;70670;52.476;13.334;2024-02-26T00:17:46;99798.13;;;3.97;81.91
58821;BME280;70670;52.476;13.334;2024-02-26T00:20:11;99802.75;;;3.91;81.97
58821;BME280;70670;52.476;13.334;2024-02-26T00:22:37;99802.75;;;3.91;82.18
58821;BME280;70670;52.476;13.334;2024-02-26T00:25:03;99803.78;;;3.87;82.80
58821;BME280;70670;52.476;13.334;2024-02-26T00:27:29;99802.34;;;3.80;83.71
58821;BME280;70670;52.476;13.334;2024-02-26T00:29:54;99792.13;;;3.71;84.79
58821;BME280;70670;52.476;13.334;2024-02-26T00:32:20;99791.41;;;3.67;84.93
58821;BME280;70670;52.476;13.334;2024-02-26T00:34:45;99796.69;;;3.67;85.68
58821;BME280;70670;52.476;13.334;2024-02-26T00:37:11;99794.19;;;3.64;86.34
58821;BME280;70670;52.476;13.334;2024-02-26T00:39:36;99795.25;;;3.60;87.42
58821;BME280;70670;52.476;13.334;2024-02-26T00:42:02;99792.78;;;3.56;87.79
58821;BME280;70670;52.476;13.334;2024-02-26T00:44:28;99794.63;;;3.54;88.09
58821;BME280;70670;52.476;13.334;2024-02-26T00:46:53;99785.88;;;3.52;88.30
58821;BME280;70670;52.476;13.334;2024-02-26T00:49:18;99784.16;;;3.51;89.06
58821;BME280;70670;52.476;13.334;2024-02-26T00:51:44;99781.44;;;3.52;89.46
58821;BME280;70670;52.476;13.334;2024-02-26T00:54:09;99779.75;;;3.51;90.30
58821;BME280;70670;52.476;13.334;2024-02-26T00:56:35;99778.88;;;3.51;90.66
58821;BME280;70670;52.476;13.334;2024-02-26T00:59:00;99776.34;;;3.48;90.71
58821;BME280;70670;52.476;13.334;2024-02-26T01:01:26;99781.78;;;3.44;90.86
58821;BME280;70670;52.476;13.334;2024-02-26T01:03:52;99773.03;;;3.42;90.86
58821;BME280;70670;52.476;13.334;2024-02-26T01:06:17;99778.44;;;3.39;90.90
58821;BME280;70670;52.476;13.334;2024-02-26T01:08:43;99778.56;;;3.36;90.94
58821;BME280;70670;52.476;13.334;2024-02-26T01:11:09;99776.13;;;3.32;90.96
58821;BME280;70670;52.476;13.334;2024-02-26T01:13:34;99779.50;;;3.35;90.70
58821;BME280;70670;52.476;13.334;2024-02-26T01:15:59;99786.66;;;3.33;90.76
58821;BME280;70670;52.476;13.334;2024-02-26T01:18:26;99777.06;;;3.31;91.10
58821;BME280;70670;52.476;13.334;2024-02-26T01:20:52;99781.69;;;3.26;91.44
58821;BME280;70670;52.476;13.334;2024-02-26T01:23:19;99780.13;;;3.20;92.06
58821;BME280;70670;52.476;13.334;2024-02-26T01:25:45;99772.38;;;3.15;92.50
58821;BME280;70670;52.476;13.334;2024-02-26T01:28:10;99767.19;;;3.12;92.59
58821;BME280;70670;52.476;13.334;2024-02-26T01:30:36;99774.97;;;3.17;92.53
58821;BME280;70670;52.476;13.334;2024-02-26T01:33:01;99767.72;;;3.22;92.09
58821;BME280;70670;52.476;13.334;2024-02-26T01:35:27;99769.31;;;3.26;91.98
58821;BME280;70670;52.476;13.334;2024-02-26T01:37:52;99768.16;;;3.33;91.49
58821;BME280;70670;52.476;13.334;2024-02-26T01:40:18;99762.69;;;3.36;91.36
58821;BME280;70670;52.476;13.334;2024-02-26T01:42:45;99756.50;;;3.37;91.54
58821;BME280;70670;52.476;13.334;2024-02-26T01:45:12;99756.50;;;3.37;91.31
58821;BME280;70670;52.476;13.334;2024-02-26T01:47:40;99749.38;;;3.39;90.75
58821;BME280;70670;52.476;13.334;2024-02-26T01:50:06;99755.47;;;3.41;90.55
58821;BME280;70670;52.476;13.334;2024-02-26T01:52:32;99763.31;;;3.43;90.25
58821;BME280;70670;52.476;13.334;2024-02-26T01:54:58;99758.00;;;3.44;90.13
58821;BME280;70670;52.476;13.334;2024-02-26T01:57:23;99758.88;;;3.43;90.60
58821;BME280;70670;52.476;13.334;2024-02-26T01:59:49;99765.34;;;3.36;91.21
58821;BME280;70670;52.476;13.334;2024-02-26T02:02:14;99769.00;;;3.34;91.20
58821;BME280;70670;52.476;13.334;2024-02-26T02:04:40;99769.84;;;3.34;91.25
58821;BME280;70670;52.476;13.334;2024-02-26T02:07:06;99772.50;;;3.34;91.04
58821;BME280;70670;52.476;13.334;2024-02-26T02:09:31;99773.56;;;3.30;91.61
58821;BME280;70670;52.476;13.334;2024-02-26T02:11:57;99778.03;;;3.28;91.86
58821;BME280;70670;52.476;13.334;2024-02-26T02:14:24;99764.94;;;3.25;91.87
58821;BME280;70670;52.476;13.334;2024-02-26T02:16:50;99764.25;;;3.20;92.14
58821;BME280;70670;52.476;13.334;2024-02-26T02:19:15;99757.31;;;3.17;92.30
58821;BME280;70670;52.476;13.334;2024-02-26T02:21:40;99759.13;;;3.17;92.56
58821;BME280;70670;52.476;13.334;2024-02-26T02:24:06;99767.94;;;3.16;92.77
58821;BME280;70670;52.476;13.334;2024-02-26T02:26:31;99761.88;;;3.14;93.07
58821;BME280;70670;52.476;13.334;2024-02-26T02:28:57;99775.22;;;3.11;93.05
58821;BME280;70670;52.476;13.334;2024-02-26T02:31:23;99764.75;;;3.08;93.35
58821;BME280;70670;52.476;13.334;2024-02-26T02:33:49;99768.31;;;3.07;93.70
58821;BME280;70670;52.476;13.334;2024-02-26T02:36:15;99770.16;;;3.05;94.07
58821;BME280;70670;52.476;13.334;2024-02-26T02:38:49;99768.53;;;3.01;94.47
58821;BME280;70670;52.476;13.334;2024-02-26T02:41:15;99771.38;;;2.96;94.82
58821;BME280;70670;52.476;13.334;2024-02-26T02:43:41;99769.84;;;2.90;95.17
58821;BME280;70670;52.476;13.334;2024-02-26T02:46:06;99767.38;;;2.86;95.59
58821;BME280;70670;52.476;13.334;2024-02-26T02:48:32;99772.84;;;2.81;96.01
58821;BME280;70670;52.476;13.334;2024-02-26T02:50:57;99778.34;;;2.75;96.68
58821;BME280;70670;52.476;13.334;2024-02-26T02:53:23;99788.19;;;2.71;97.09
58821;BME280;70670;52.476;13.334;2024-02-26T02:55:48;99785.72;;;2.67;97.39
58821;BME280;70670;52.476;13.334;2024-02-26T02:58:14;99785.81;;;2.64;97.85
58821;BME280;70670;52.476;13.334;2024-02-26T03:00:39;99783.38;;;2.59;98.06
58821;BME280;70670;52.476;13.334;2024-02-26T03:03:05;99779.97;;;2.56;98.41
58821;BME280;70670;52.476;13.334;2024-02-26T03:05:31;99787.09;;;2.54;98.59
58821;BME280;70670;52.476;13.334;2024-02-26T03:07:57;99786.41;;;2.49;98.60
58821;BME280;70670;52.476;13.334;2024-02-26T03:10:22;99789.22;;;2.44;99.12
58821;BME280;70670;52.476;13.334;2024-02-26T03:12:49;99792.03;;;2.39;99.46
58821;BME280;70670;52.476;13.334;2024-02-26T03:15:14;99784.22;;;2.36;99.49
58821;BME280;70670;52.476;13.334;2024-02-26T03:17:40;99789.59;;;2.33;100.00
58821;BME280;70670;52.476;13.334;2024-02-26T03:20:06;99779.09;;;2.32;100.00
58821;BME280;70670;52.476;13.334;2024-02-26T03:22:33;99787.84;;;2.34;99.73
58821;BME280;70670;52.476;13.334;2024-02-26T03:24:59;99778.25;;;2.31;100.00
58821;BME280;70670;52.476;13.334;2024-02-26T03:27:24;99780.94;;;2.30;100.00
58821;BME280;70670;52.476;13.334;2024-02-26T03:29:50;99787.09;;;2.30;100.00
58821;BME280;70670;52.476;13.334;2024-02-26T03:32:15;99787.19;;;2.27;100.00
58821;BME280;70670;52.476;13.334;2024-02-26T03:34:41;99775.88;;;2.24;100.00
58821;BME280;70670;52.476;13.334;2024-02-26T03:37:07;99783.88;;;2.22;100.00
58821;BME280;70670;52.476;13.334;2024-02-26T03:39:34;99772.59;;;2.17;100.00
58821;BME280;70670;52.476;13.334;2024-02-26T03:42:00;99774.25;;;2.19;100.00
58821;BME280;70670;52.476;13.334;2024-02-26T03:44:25;99786.59;;;2.19;100.00
58821;BME280;70670;52.476;13.334;2024-02-26T03:46:51;99780.41;;;2.20;100.00
58821;BME280;70670;52.476;13.334;2024-02-26T03:49:16;99790.16;;;2.18;100.00
58821;BME280;70670;52.476;13.334;2024-02-26T03:51:42;99784.16;;;2.13;100.00
58821;BME280;70670;52.476;13.334;2024-02-26T03:54:07;99790.38;;;2.12;100.00
58821;BME280;70670;52.476;13.334;2024-02-26T03:56:33;99786.78;;;2.14;100.00
58821;BME280;70670;52.476;13.334;2024-02-26T03:58:58;99792.09;;;2.13;100.00
58821;BME280;70670;52.476;13.334;2024-02-26T04:01:25;99792.16;;;2.11;100.00
58821;BME280;70670;52.476;13.334;2024-02-26T04:03:50;99800.09;;;2.10;100.00
58821;BME280;70670;52.476;13.334;2024-02-26T04:06:18;99803.66;;;2.09;100.00
58821;BME280;70670;52.476;13.334;2024-02-26T04:08:46;99800.25;;;2.07;100.00
58821;BME280;70670;52.476;13.334;2024-02-26T04:11:11;99805.56;;;2.05;100.00
58821;BME280;70670;52.476;13.334;2024-02-26T04:13:37;99801.13;;;2.06;100.00
58821;BME280;70670;52.476;13.334;2024-02-26T04:16:05;99801.09;;;2.07;100.00
58821;BME280;70670;52.476;13.334;2024-02-26T04:18:31;99802.03;;;2.06;100.00
58821;BME280;70670;52.476;13.334;2024-02-26T04:20:56;99803.78;;;2.06;100.00
58821;BME280;70670;52.476;13.334;2024-02-26T04:23:22;99815.16;;;2.08;100.00
58821;BME280;70670;52.476;13.334;2024-02-26T04:25:47;99813.44;;;2.07;100.00
58821;BME280;70670;52.476;13.334;2024-02-26T04:28:13;99814.31;;;2.06;100.00
58821;BME280;70670;52.476;13.334;2024-02-26T04:30:38;99808.19;;;2.05;100.00
58821;BME280;70670;52.476;13.334;2024-02-26T04:33:04;99808.94;;;2.09;100.00
58821;BME280;70670;52.476;13.334;2024-02-26T04:35:30;99814.13;;;2.12;100.00
58821;BME280;70670;52.476;13.334;2024-02-26T04:37:55;99819.22;;;2.18;100.00
58821;BME280;70670;52.476;13.334;2024-02-26T04:40:21;99823.47;;;2.22;100.00
58821;BME280;70670;52.476;13.334;2024-02-26T04:42:46;99826.81;;;2.26;100.00
58821;BME280;70670;52.476;13.334;2024-02-26T04:45:12;99829.34;;;2.30;100.00
58821;BME280;70670;52.476;13.334;2024-02-26T04:47:37;99833.69;;;2.31;100.00
58821;BME280;70670;52.476;13.334;2024-02-26T04:50:03;99832.06;;;2.27;99.73
58821;BME280;70670;52.476;13.334;2024-02-26T04:52:28;99832.16;;;2.24;99.83
58821;BME280;70670;52.476;13.334;2024-02-26T04:54:54;99834.81;;;2.24;99.96
58821;BME280;70670;52.476;13.334;2024-02-26T04:57:20;99836.53;;;2.25;99.91
58821;BME280;70670;52.476;13.334;2024-02-26T04:59:46;99834.88;;;2.22;100.00
58821;BME280;70670;52.476;13.334;2024-02-26T05:02:12;99835.75;;;2.23;100.00
58821;BME280;70670;52.476;13.334;2024-02-26T05:04:37;99840.19;;;2.21;100.00
58821;BME280;70670;52.476;13.334;2024-02-26T05:07:03;99836.66;;;2.22;100.00
58821;BME280;70670;52.476;13.334;2024-02-26T05:09:29;99852.50;;;2.22;100.00
58821;BME280;70670;52.476;13.334;2024-02-26T05:11:54;99842.84;;;2.21;100.00
58821;BME280;70670;52.476;13.334;2024-02-26T05:14:20;99848.06;;;2.22;100.00
58821;BME280;70670;52.476;13.334;2024-02-26T05:16:45;99846.31;;;2.21;100.00
58821;BME280;70670;52.476;13.334;2024-02-26T05:19:11;99849.91;;;2.20;100.00
58821;BME280;70670;52.476;13.334;2024-02-26T05:21:36;99856.03;;;2.21;100.00
58821;BME280;70670;52.476;13.334;2024-02-26T05:24:02;99868.34;;;2.22;100.00
58821;BME280;70670;52.476;13.334;2024-02-26T05:26:27;99863.91;;;2.22;100.00
58821;BME280;70670;52.476;13.334;2024-02-26T05:28:53;99864.88;;;2.20;100.00
58821;BME280;70670;52.476;13.334;2024-02-26T05:31:18;99867.44;;;2.21;100.00
58821;BME280;70670;52.476;13.334;2024-02-26T05:33:44;99863.91;;;2.22;100.00
58821;BME280;70670;52.476;13.334;2024-02-26T05:36:09;99863.06;;;2.22;100.00
58821;BME280;70670;52.476;13.334;2024-02-26T05:38:35;99863.94;;;2.21;100.00
58821;BME280;70670;52.476;13.334;2024-02-26T05:41:00;99867.50;;;2.20;100.00
58821;BME280;70670;52.476;13.334;2024-02-26T05:43:26;99860.50;;;2.19;100.00
58821;BME280;70670;52.476;13.334;2024-02-26T05:45:52;99863.09;;;2.20;100.00
58821;BME280;70670;52.476;13.334;2024-02-26T05:48:18;99871.84;;;2.22;100.00
58821;BME280;70670;52.476;13.334;2024-02-26T05:50:44;99869.03;;;2.27;100.00
58821;BME280;70670;52.476;13.334;2024-02-26T05:53:10;99872.44;;;2.31;100.00
58821;BME280;70670;52.476;13.334;2024-02-26T05:55:35;99875.06;;;2.31;100.00
58821;BME280;70670;52.476;13.334;2024-02-26T05:58:01;99876.72;;;2.33;100.00
58821;BME280;70670;52.476;13.334;2024-02-26T06:00:26;99871.34;;;2.36;100.00
58821;BME280;70670;52.476;13.334;2024-02-26T06:02:52;99887.19;;;2.36;100.00
58821;BME280;70670;52.476;13.334;2024-02-26T06:05:17;99887.19;;;2.36;100.00
58821;BME280;70670;52.476;13.334;2024-02-26T06:07:43;99890.66;;;2.38;100.00
58821;BME280;70670;52.476;13.334;2024-02-26T06:10:08;99883.53;;;2.40;100.00
58821;BME280;70670;52.476;13.334;2024-02-26T06:12:37;99891.28;;;2.45;100.00
58821;BME280;70670;52.476;13.334;2024-02-26T06:15:02;99890.38;;;2.46;100.00
58821;BME280;70670;52.476;13.334;2024-02-26T06:17:29;99894.63;;;2.50;100.00
58821;BME280;70670;52.476;13.334;2024-02-26T06:19:55;99897.16;;;2.53;100.00
58821;BME280;70670;52.476;13.334;2024-02-26T06:22:20;99895.25;;;2.57;100.00
58821;BME280;70670;52.476;13.334;2024-02-26T06:24:45;99884.59;;;2.60;100.00
58821;BME280;70670;52.476;13.334;2024-02-26T06:27:11;99894.13;;;2.64;100.00
58821;BME280;70670;52.476;13.334;2024-02-26T06:29:37;99898.50;;;2.65;100.00
58821;BME280;70670;52.476;13.334;2024-02-26T06:32:03;99900.16;;;2.67;100.00
58821;BME280;70670;52.476;13.334;2024-02-26T06:34:28;99900.09;;;2.69;100.00
58821;BME280;70670;52.476;13.334;2024-02-26T06:36:54;99905.28;;;2.72;100.00
58821;BME280;70670;52.476;13.334;2024-02-26T06:39:19;99913.91;;;2.77;100.00
58821;BME280;70670;52.476;13.334;2024-02-26T06:41:45;99911.97;;;2.82;100.00
58821;BME280;70670;52.476;13.334;2024-02-26T06:44:12;99917.88;;;2.89;100.00
58821;BME280;70670;52.476;13.334;2024-02-26T06:46:38;99908.88;;;2.94;100.00
58821;BME280;70670;52.476;13.334;2024-02-26T06:49:03;99921.84;;;3.01;100.00
58821;BME280;70670;52.476;13.334;2024-02-26T06:51:29;99927.78;;;3.07;99.72
58821;BME280;70670;52.476;13.334;2024-02-26T06:53:54;99932.00;;;3.13;98.97
58821;BME280;70670;52.476;13.334;2024-02-26T06:56:20;99930.97;;;3.17;98.74
58821;BME280;70670;52.476;13.334;2024-02-26T06:58:45;99933.47;;;3.20;98.54
58821;BME280;70670;52.476;13.334;2024-02-26T07:01:12;99940.44;;;3.23;98.12
58821;BME280;70670;52.476;13.334;2024-02-26T07:03:37;99935.94;;;3.25;98.09
58821;BME280;70670;52.476;13.334;2024-02-26T07:06:05;99930.53;;;3.28;97.55
58821;BME280;70670;52.476;13.334;2024-02-26T07:08:30;99928.88;;;3.25;97.46
58821;BME280;70670;52.476;13.334;2024-02-26T07:10:56;99947.84;;;3.36;97.14
58821;BME280;70670;52.476;13.334;2024-02-26T07:13:21;99950.38;;;3.39;96.82
58821;BME280;70670;52.476;13.334;2024-02-26T07:15:47;99950.16;;;3.45;96.49
58821;BME280;70670;52.476;13.334;2024-02-26T07:18:12;99954.31;;;3.51;96.65
58821;BME280;70670;52.476;13.334;2024-02-26T07:20:38;99948.06;;;3.54;95.97
58821;BME280;70670;52.476;13.334;2024-02-26T07:23:03;99950.59;;;3.57;95.60
58821;BME280;70670;52.476;13.334;2024-02-26T07:25:29;99946.91;;;3.61;95.32
58821;BME280;70670;52.476;13.334;2024-02-26T07:27:54;99944.31;;;3.59;95.27
58821;BME280;70670;52.476;13.334;2024-02-26T07:30:20;99946.97;;;3.59;95.69
58821;BME280;70670;52.476;13.334;2024-02-26T07:32:45;99954.72;;;3.64;95.29
58821;BME280;70670;52.476;13.334;2024-02-26T07:35:11;99951.75;;;3.72;94.59
58821;BME280;70670;52.476;13.334;2024-02-26T07:37:36;99951.47;;;3.79;94.08
58821;BME280;70670;52.476;13.334;2024-02-26T07:40:02;99943.41;;;3.82;94.03
58821;BME280;70670;52.476;13.334;2024-02-26T07:42:28;99947.59;;;3.88;93.51
58821;BME280;70670;52.476;13.334;2024-02-26T07:44:54;99937.75;;;3.91;93.18
58821;BME280;70670;52.476;13.334;2024-02-26T07:47:19;99940.28;;;3.94;93.06
58821;BME280;70670;52.476;13.334;2024-02-26T07:49:45;99938.25;;;4.01;93.16
58821;BME280;70670;52.476;13.334;2024-02-26T07:52:10;99945.88;;;4.09;92.52
58821;BME280;70670;52.476;13.334;2024-02-26T07:54:36;99942.19;;;4.13;92.44
58821;BME280;70670;52.476;13.334;2024-02-26T07:57:01;99942.75;;;4.19;92.18
58821;BME280;70670;52.476;13.334;2024-02-26T07:59:31;99938.03;;;4.28;91.19
58821;BME280;70670;52.476;13.334;2024-02-26T08:01:56;99942.28;;;4.32;91.27
58821;BME280;70670;52.476;13.334;2024-02-26T08:04:21;99949.19;;;4.36;91.28
58821;BME280;70670;52.476;13.334;2024-02-26T08:06:47;99954.31;;;4.39;90.69
58821;BME280;70670;52.476;13.334;2024-02-26T08:09:12;99946.53;;;4.36;90.70
58821;BME280;70670;52.476;13.334;2024-02-26T08:11:38;99947.44;;;4.35;91.14
58821;BME280;70670;52.476;13.334;2024-02-26T08:14:04;99952.59;;;4.38;90.98
58821;BME280;70670;52.476;13.334;2024-02-26T08:16:29;99955.13;;;4.41;90.39
58821;BME280;70670;52.476;13.334;2024-02-26T08:18:55;99954.16;;;4.43;90.60
58821;BME280;70670;52.476;13.334;2024-02-26T08:21:20;99954.81;;;4.49;90.64
58821;BME280;70670;52.476;13.334;2024-02-26T08:23:46;99958.03;;;4.55;90.04
58821;BME280;70670;52.476;13.334;2024-02-26T08:26:12;99957.59;;;4.66;89.79
58821;BME280;70670;52.476;13.334;2024-02-26T08:28:37;99950.97;;;4.76;89.04
58821;BME280;70670;52.476;13.334;2024-02-26T08:31:03;99953.94;;;4.89;88.73
58821;BME280;70670;52.476;13.334;2024-02-26T08:33:28;99953.31;;;5.03;87.71
58821;BME280;70670;52.476;13.334;2024-02-26T08:35:54;99959.16;;;5.11;86.83
58821;BME280;70670;52.476;13.334;2024-02-26T08:38:19;99955.28;;;5.18;86.51
58821;BME280;70670;52.476;13.334;2024-02-26T08:40:45;99954.88;;;5.27;86.49
58821;BME280;70670;52.476;13.334;2024-02-26T08:43:10;99950.16;;;5.34;86.07
58821;BME280;70670;52.476;13.334;2024-02-26T08:45:36;99952.31;;;5.45;85.28
58821;BME280;70670;52.476;13.334;2024-02-26T08:48:02;99947.38;;;5.56;84.74
58821;BME280;70670;52.476;13.334;2024-02-26T08:50:27;99951.38;;;5.64;84.11
58821;BME280;70670;52.476;13.334;2024-02-26T08:52:53;99952.72;;;5.73;83.52
58821;BME280;70670;52.476;13.334;2024-02-26T08:55:18;99953.88;;;5.86;83.77
58821;BME280;70670;52.476;13.334;2024-02-26T08:57:44;99944.56;;;5.97;82.40
58821;BME280;70670;52.476;13.334;2024-02-26T09:00:10;99939.69;;;6.06;82.43
58821;BME280;70670;52.476;13.334;2024-02-26T09:02:36;99940.63;;;6.23;82.33
58821;BME280;70670;52.476;13.334;2024-02-26T09:05:04;99946.19;;;6.35;81.51
58821;BME280;70670;52.476;13.334;2024-02-26T09:07:31;99948.13;;;6.49;81.04
58821;BME280;70670;52.476;13.334;2024-02-26T09:09:56;99942.22;;;6.61;80.87
58821;BME280;70670;52.476;13.334;2024-02-26T09:12:22;99945.16;;;6.73;80.52
58821;BME280;70670;52.476;13.334;2024-02-26T09:14:47;99945.63;;;6.81;79.64
58821;BME280;70670;52.476;13.334;2024-02-26T09:17:13;99945.63;;;6.81;79.95
58821;BME280;70670;52.476;13.334;2024-02-26T09:19:38;99942.91;;;6.82;79.21
58821;BME280;70670;52.476;13.334;2024-02-26T09:22:04;99951.66;;;6.84;79.28
58821;BME280;70670;52.476;13.334;2024-02-26T09:24:29;99952.28;;;6.89;79.25
58821;BME280;70670;52.476;13.334;2024-02-26T09:26:55;99947.75;;;6.92;79.11
58821;BME280;70670;52.476;13.334;2024-02-26T09:29:20;99970.66;;;6.94;78.59
58821;BME280;70670;52.476;13.334;2024-02-26T09:31:46;99959.16;;;6.94;78.12
58821;BME280;70670;52.476;13.334;2024-02-26T09:34:12;99953.84;;;6.94;78.34
58821;BME280;70670;52.476;13.334;2024-02-26T09:36:38;99965.09;;;6.99;77.99
58821;BME280;70670;52.476;13.334;2024-02-26T09:39:03;99964.53;;;7.09;77.84
58821;BME280;70670;52.476;13.334;2024-02-26T09:41:30;99955.97;;;7.20;77.46
58821;BME280;70670;52.476;13.334;2024-02-26T09:43:56;99964.09;;;7.34;76.24
58821;BME280;70670;52.476;13.334;2024-02-26T09:46:25;99959.03;;;7.46;76.01
58821;BME280;70670;52.476;13.334;2024-02-26T09:48:50;99959.91;;;7.62;75.86
58821;BME280;70670;52.476;13.334;2024-02-26T09:51:16;99956.75;;;7.71;74.89
58821;BME280;70670;52.476;13.334;2024-02-26T09:53:45;99951.50;;;7.85;74.56
58821;BME280;70670;52.476;13.334;2024-02-26T09:56:12;99953.47;;;7.98;74.13
58821;BME280;70670;52.476;13.334;2024-02-26T09:58:40;99959.66;;;8.14;73.65
58821;BME280;70670;52.476;13.334;2024-02-26T10:01:11;99959.91;;;8.25;73.03
58821;BME280;70670;52.476;13.334;2024-02-26T10:03:40;99966.38;;;8.37;72.48
58821;BME280;70670;52.476;13.334;2024-02-26T10:06:07;99961.44;;;8.45;71.96
58821;BME280;70670;52.476;13.334;2024-02-26T10:08:33;99962.53;;;8.57;71.53
58821;BME280;70670;52.476;13.334;2024-02-26T10:11:00;99970.09;;;8.65;71.32
58821;BME280;70670;52.476;13.334;2024-02-26T10:13:26;99964.19;;;8.74;71.27
58821;BME280;70670;52.476;13.334;2024-02-26T10:15:51;99958.41;;;8.81;70.51
58821;BME280;70670;52.476;13.334;2024-02-26T10:18:17;99958.78;;;8.90;70.04
58821;BME280;70670;52.476;13.334;2024-02-26T10:20:42;99954.91;;;8.95;69.68
58821;BME280;70670;52.476;13.334;2024-02-26T10:23:25;99960.44;;;9.06;69.81
58821;BME280;70670;52.476;13.334;2024-02-26T10:25:54;99965.13;;;9.17;68.95
58821;BME280;70670;52.476;13.334;2024-02-26T10:28:20;99966.56;;;9.23;68.79
58821;BME280;70670;52.476;13.334;2024-02-26T10:30:45;99966.66;;;9.35;68.83
58821;BME280;70670;52.476;13.334;2024-02-26T10:33:12;99970.22;;;9.50;67.46
58821;BME280;70670;52.476;13.334;2024-02-26T10:35:40;99968.75;;;9.59;65.58
58821;BME280;70670;52.476;13.334;2024-02-26T10:38:08;99966.06;;;9.73;66.01
58821;BME280;70670;52.476;13.334;2024-02-26T10:40:34;99970.91;;;9.81;66.18
58821;BME280;70670;52.476;13.334;2024-02-26T10:42:59;99960.09;;;9.97;65.25
58821;BME280;70670;52.476;13.334;2024-02-26T10:45:26;99953.41;;;10.04;64.33
58821;BME280;70670;52.476;13.334;2024-02-26T10:47:51;99962.94;;;10.08;63.97
58821;BME280;70670;52.476;13.334;2024-02-26T10:50:17;99962.25;;;10.19;64.17
58821;BME280;70670;52.476;13.334;2024-02-26T10:52:43;99964.44;;;10.26;63.56
58821;BME280;70670;52.476;13.334;2024-02-26T10:55:11;99968.22;;;10.37;63.04
58821;BME280;70670;52.476;13.334;2024-02-26T10:57:39;99962.03;;;10.49;63.94
58821;BME280;70670;52.476;13.334;2024-02-26T11:00:05;99958.25;;;10.66;61.64
58821;BME280;70670;52.476;13.334;2024-02-26T11:02:32;99968.22;;;10.76;60.83
58821;BME280;70670;52.476;13.334;2024-02-26T11:04:58;99966.94;;;10.82;60.66
58821;BME280;70670;52.476;13.334;2024-02-26T11:07:25;99961.69;;;10.80;60.59
58821;BME280;70670;52.476;13.334;2024-02-26T11:09:51;99960.94;;;10.78;60.76
58821;BME280;70670;52.476;13.334;2024-02-26T11:12:18;99957.41;;;10.78;60.32
58821;BME280;70670;52.476;13.334;2024-02-26T11:14:46;99962.13;;;10.87;60.63
58821;BME280;70670;52.476;13.334;2024-02-26T11:17:12;99964.81;;;11.00;59.82
58821;BME280;70670;52.476;13.334;2024-02-26T11:19:38;99962.13;;;11.00;59.88
58821;BME280;70670;52.476;13.334;2024-02-26T11:22:05;99962.47;;;11.08;59.67
58821;BME280;70670;52.476;13.334;2024-02-26T11:24:30;99954.56;;;11.06;59.19
58821;BME280;70670;52.476;13.334;2024-02-26T11:26:57;99965.38;;;11.18;59.07
58821;BME280;70670;52.476;13.334;2024-02-26T11:29:25;99958.41;;;11.15;58.26
58821;BME280;70670;52.476;13.334;2024-02-26T11:31:52;99964.09;;;11.23;58.49
58821;BME280;70670;52.476;13.334;2024-02-26T11:34:17;99963.56;;;11.18;58.70
58821;BME280;70670;52.476;13.334;2024-02-26T11:36:43;99963.56;;;11.18;58.75
58821;BME280;70670;52.476;13.334;2024-02-26T11:39:10;99958.94;;;11.20;58.65
58821;BME280;70670;52.476;13.334;2024-02-26T11:41:37;99970.41;;;11.22;58.22
58821;BME280;70670;52.476;13.334;2024-02-26T11:44:03;99964.28;;;11.20;58.69
58821;BME280;70670;52.476;13.334;2024-02-26T11:46:32;99957.53;;;11.27;58.34
58821;BME280;70670;52.476;13.334;2024-02-26T11:48:59;99949.09;;;11.21;58.08
58821;BME280;70670;52.476;13.334;2024-02-26T11:51:26;99951.34;;;11.14;57.96
58821;BME280;70670;52.476;13.334;2024-02-26T11:53:52;99961.59;;;11.20;58.17
58821;BME280;70670;52.476;13.334;2024-02-26T11:58:46;99952.75;;;11.32;57.08
58821;BME280;70670;52.476;13.334;2024-02-26T12:03:56;99961.59;;;11.20;57.31
58821;BME280;70670;52.476;13.334;2024-02-26T12:06:21;99958.19;;;11.18;57.46
58821;BME280;70670;52.476;13.334;2024-02-26T12:08:47;99957.66;;;11.13;56.68
58821;BME280;70670;52.476;13.334;2024-02-26T12:11:15;99963.13;;;11.12;57.01
58821;BME280;70670;52.476;13.334;2024-02-26T12:13:41;99959.16;;;11.17;57.18
58821;BME280;70670;52.476;13.334;2024-02-26T12:16:07;99955.50;;;11.31;56.21
58821;BME280;70670;52.476;13.334;2024-02-26T12:18:34;99955.19;;;11.36;55.52
58821;BME280;70670;52.476;13.334;2024-02-26T12:21:00;99961.81;;;11.43;56.15
58821;BME280;70670;52.476;13.334;2024-02-26T12:23:29;99959.44;;;11.64;56.25
58821;BME280;70670;52.476;13.334;2024-02-26T12:26:01;99960.06;;;11.93;56.38
58821;BME280;70670;52.476;13.334;2024-02-26T12:28:27;99960.94;;;12.17;55.37
58821;BME280;70670;52.476;13.334;2024-02-26T12:30:53;99958.38;;;12.40;54.62
58821;BME280;70670;52.476;13.334;2024-02-26T12:33:19;99960.78;;;12.55;53.60
58821;BME280;70670;52.476;13.334;2024-02-26T12:35:44;99959.13;;;12.77;53.67
58821;BME280;70670;52.476;13.334;2024-02-26T12:38:14;99964.94;;;12.95;52.63
58821;BME280;70670;52.476;13.334;2024-02-26T12:40:39;99968.63;;;13.16;52.92
58821;BME280;70670;52.476;13.334;2024-02-26T12:43:05;99970.22;;;13.19;52.53
58821;BME280;70670;52.476;13.334;2024-02-26T12:45:30;99970.16;;;13.32;52.63
58821;BME280;70670;52.476;13.334;2024-02-26T12:47:57;99971.13;;;13.42;52.05
58821;BME280;70670;52.476;13.334;2024-02-26T12:50:24;99969.19;;;13.55;52.67
58821;BME280;70670;52.476;13.334;2024-02-26T12:52:49;99965.03;;;13.62;52.42